createdAt,value
2018-08-22T00:02:01.697Z,75.60
2018-08-22T00:04:29.430Z,75.86
2018-08-22T00:06:58.339Z,75.96
2018-08-22T00:09:26.069Z,75.93
2018-08-22T00:11:54.381Z,75.85
2018-08-22T00:14:22.725Z,76.15
2018-08-22T00:16:51.620Z,76.39
2018-08-22T00:19:19.354Z,76.37
2018-08-22T00:21:47.670Z,75.93
2018-08-22T00:24:15.988Z,75.06
2018-08-22T00:26:44.297Z,74.45
2018-08-22T00:29:13.222Z,74.68
2018-08-22T00:31:41.501Z,75.04
2018-08-22T00:34:09.847Z,75.71
2018-08-22T00:36:37.564Z,75.90
2018-08-22T00:39:06.461Z,76.69
2018-08-22T00:41:34.773Z,77.49
2018-08-22T00:44:03.087Z,78.59
2018-08-22T00:46:30.822Z,78.79
2018-08-22T00:48:59.131Z,79.52
2018-08-22T00:51:28.016Z,79.99
2018-08-22T00:53:56.331Z,80.01
2018-08-22T00:56:24.650Z,79.57
2018-08-22T00:58:52.956Z,79.58
2018-08-22T01:01:21.277Z,79.15
2018-08-22T01:03:49.005Z,78.50
2018-08-22T01:06:17.321Z,78.39
2018-08-22T01:08:45.633Z,78.22
2018-08-22T01:11:13.950Z,78.35
2018-08-22T01:13:42.841Z,78.21
2018-08-22T01:16:11.152Z,77.86
2018-08-22T01:18:39.469Z,78.03
2018-08-22T01:21:07.792Z,77.85
2018-08-22T01:23:35.517Z,78.29
2018-08-22T01:26:03.869Z,78.41
2018-08-22T01:28:32.177Z,78.54
2018-08-22T01:31:01.079Z,78.49
2018-08-22T01:33:28.821Z,78.59
2018-08-22T01:35:57.133Z,79.40
2018-08-22T01:38:25.448Z,79.74
2018-08-22T01:40:54.340Z,79.92
2018-08-22T01:43:22.661Z,79.86
2018-08-22T01:45:50.977Z,79.54
2018-08-22T01:48:19.289Z,78.69
2018-08-22T01:50:47.025Z,77.69
2018-08-22T01:53:15.344Z,77.41
2018-08-22T01:55:44.238Z,77.20
2018-08-22T01:58:11.970Z,77.38
2018-08-22T02:00:40.864Z,77.48
2018-08-22T02:03:09.177Z,77.23
2018-08-22T02:05:37.490Z,77.21
2018-08-22T02:08:05.803Z,77.29
2018-08-22T02:10:34.111Z,77.41
2018-08-22T02:13:02.427Z,77.56
2018-08-22T02:15:30.738Z,77.49
2018-08-22T02:17:59.053Z,77.54
2018-08-22T02:20:27.668Z,77.54
2018-08-22T02:22:55.657Z,77.48
2018-08-22T02:25:23.967Z,77.63
2018-08-22T02:27:52.905Z,77.71
2018-08-22T02:30:20.638Z,77.67
2018-08-22T02:32:49.533Z,78.03
2018-08-22T02:35:17.848Z,77.94
2018-08-22T02:37:45.578Z,78.07
2018-08-22T02:40:14.473Z,77.75
2018-08-22T02:42:42.778Z,77.54
2018-08-22T02:45:10.514Z,77.30
2018-08-22T02:47:38.820Z,76.52
2018-08-22T02:50:07.133Z,75.81
2018-08-22T02:52:36.023Z,75.26
2018-08-22T02:55:04.107Z,74.86
2018-08-22T02:57:32.417Z,74.81
2018-08-22T03:00:01.311Z,74.60
2018-08-22T03:02:29.041Z,74.32
2018-08-22T03:04:57.737Z,74.25
2018-08-22T03:07:25.670Z,74.37
2018-08-22T03:09:54.566Z,74.96
2018-08-22T03:12:22.883Z,75.74
2018-08-22T03:14:50.616Z,76.14
2018-08-22T03:17:19.089Z,76.51
2018-08-22T03:19:47.241Z,76.15
2018-08-22T03:22:15.606Z,75.35
2018-08-22T03:24:43.881Z,74.44
2018-08-22T03:27:12.187Z,74.07
2018-08-22T03:29:41.105Z,73.96
2018-08-22T03:32:08.842Z,73.89
2018-08-22T03:34:37.153Z,73.91
2018-08-22T03:37:05.469Z,73.84
2018-08-22T03:39:34.366Z,73.61
2018-08-22T03:42:02.679Z,74.05
2018-08-22T03:44:30.425Z,74.68
2018-08-22T03:46:59.314Z,75.41
2018-08-22T03:49:27.625Z,75.92
2018-08-22T03:51:55.394Z,76.46
2018-08-22T03:54:24.289Z,76.70
2018-08-22T03:56:52.018Z,77.14
2018-08-22T03:59:20.331Z,77.01
2018-08-22T04:01:49.229Z,77.18
2018-08-22T04:04:16.978Z,77.26
2018-08-22T04:06:45.330Z,77.19
2018-08-22T04:09:13.660Z,76.71
2018-08-22T04:11:42.557Z,76.70
2018-08-22T04:14:10.877Z,77.27
2018-08-22T04:16:39.187Z,77.10
2018-08-22T04:19:07.506Z,76.83
2018-08-22T04:21:35.818Z,76.19
2018-08-22T04:24:04.143Z,74.81
2018-08-22T04:26:31.880Z,73.39
2018-08-22T04:29:00.205Z,72.18
2018-08-22T04:31:29.127Z,71.56
2018-08-22T04:33:57.451Z,71.45
2018-08-22T04:36:25.191Z,72.51
2018-08-22T04:38:53.558Z,72.97
2018-08-22T04:41:22.023Z,73.27
2018-08-22T04:43:50.157Z,73.30
2018-08-22T04:46:18.481Z,73.15
2018-08-22T04:48:46.794Z,72.19
2018-08-22T04:51:15.123Z,71.60
2018-08-22T04:53:43.442Z,71.49
2018-08-22T04:56:11.755Z,71.35
2018-08-22T04:58:40.870Z,71.34
2018-08-22T05:01:09.181Z,71.11
2018-08-22T05:03:37.282Z,71.13
2018-08-22T05:06:05.702Z,71.51
2018-08-22T05:08:33.918Z,71.75
2018-08-22T05:11:02.236Z,71.73
2018-08-22T05:13:30.546Z,71.65
2018-08-22T05:15:58.863Z,71.88
2018-08-22T05:18:26.595Z,71.40
2018-08-22T05:20:55.489Z,70.94
2018-08-22T05:23:23.217Z,70.43
2018-08-22T05:25:51.549Z,70.17
2018-08-22T05:28:20.436Z,69.99
2018-08-22T05:30:48.754Z,69.87
2018-08-22T05:33:16.513Z,69.96
2018-08-22T05:35:45.409Z,69.75
2018-08-22T05:38:14.017Z,69.63
2018-08-22T05:40:42.343Z,69.83
2018-08-22T05:43:10.066Z,69.59
2018-08-22T05:45:38.960Z,69.54
2018-08-22T05:48:07.273Z,69.39
2018-08-22T05:50:35.593Z,69.15
2018-08-22T05:53:03.901Z,69.16
2018-08-22T05:55:32.224Z,69.05
2018-08-22T05:57:59.947Z,68.99
2018-08-22T06:00:28.271Z,69.00
2018-08-22T06:02:57.181Z,69.07
2018-08-22T06:05:24.922Z,68.92
2018-08-22T06:07:53.819Z,68.29
2018-08-22T06:10:22.126Z,67.49
2018-08-22T06:12:50.447Z,67.37
2018-08-22T06:15:18.761Z,67.01
2018-08-22T06:17:47.076Z,66.86
2018-08-22T06:20:15.389Z,66.87
2018-08-22T06:22:43.712Z,66.95
2018-08-22T06:25:12.031Z,67.03
2018-08-22T06:27:39.759Z,67.17
2018-08-22T06:30:08.716Z,67.32
2018-08-22T06:35:10.716Z,67.15
2018-08-22T06:37:39.320Z,67.14
2018-08-22T06:40:07.469Z,67.09
2018-08-22T06:42:35.826Z,66.88
2018-08-22T06:45:04.195Z,66.58
2018-08-22T06:47:32.543Z,66.03
2018-08-22T06:50:00.971Z,66.11
2018-08-22T06:52:29.331Z,66.16
2018-08-22T06:54:57.687Z,66.13
2018-08-22T06:57:26.042Z,65.66
2018-08-22T06:59:54.398Z,65.36
2018-08-22T07:02:22.760Z,65.32
2018-08-22T07:04:51.125Z,65.13
2018-08-22T07:07:19.486Z,65.01
2018-08-22T07:09:47.864Z,64.89
2018-08-22T07:12:16.217Z,64.75
2018-08-22T07:14:44.572Z,64.54
2018-08-22T07:17:12.941Z,63.77
2018-08-22T07:19:41.300Z,63.83
2018-08-22T07:22:09.651Z,63.86
2018-08-22T07:24:38.026Z,63.39
2018-08-22T07:27:06.458Z,63.21
2018-08-22T07:29:34.818Z,63.10
2018-08-22T07:32:03.213Z,63.19
2018-08-22T07:34:31.568Z,62.85
2018-08-22T07:36:59.962Z,62.65
2018-08-22T07:39:28.336Z,62.22
2018-08-22T07:41:56.667Z,61.66
2018-08-22T07:44:25.018Z,61.90
2018-08-22T07:46:53.376Z,61.63
2018-08-22T07:49:21.760Z,61.31
2018-08-22T07:51:50.124Z,61.00
2018-08-22T07:54:18.483Z,60.84
2018-08-22T07:56:46.839Z,60.47
2018-08-22T07:59:15.197Z,60.15
2018-08-22T08:01:44.169Z,59.28
2018-08-22T08:04:12.529Z,59.12
2018-08-22T08:06:40.884Z,57.67
2018-08-22T08:09:09.237Z,58.12
2018-08-22T08:11:37.591Z,58.48
2018-08-22T08:14:05.956Z,58.91
2018-08-22T08:16:34.314Z,57.41
2018-08-22T08:19:02.675Z,55.95
2018-08-22T08:21:31.022Z,55.90
2018-08-22T08:23:59.389Z,56.30
2018-08-22T08:26:27.754Z,56.50
2018-08-22T08:28:56.116Z,56.28
2018-08-22T08:31:24.477Z,55.85
2018-08-22T08:33:52.840Z,56.03
2018-08-22T08:36:21.194Z,56.00
2018-08-22T08:38:49.597Z,56.45
2018-08-22T08:41:17.950Z,56.24
2018-08-22T08:43:46.311Z,55.78
2018-08-22T08:46:14.677Z,55.65
2018-08-22T08:48:43.030Z,55.74
2018-08-22T08:51:11.383Z,55.72
2018-08-22T08:53:39.738Z,55.26
2018-08-22T08:56:08.341Z,54.88
2018-08-22T08:58:36.702Z,54.49
2018-08-22T09:01:05.063Z,53.61
2018-08-22T09:03:33.447Z,52.89
2018-08-22T09:06:01.833Z,53.43
2018-08-22T09:08:30.186Z,53.30
2018-08-22T09:10:58.540Z,52.85
2018-08-22T09:13:26.907Z,53.45
2018-08-22T09:15:55.263Z,53.59
2018-08-22T09:18:23.616Z,53.38
2018-08-22T09:20:52.010Z,52.81
2018-08-22T09:23:20.333Z,53.12
2018-08-22T09:25:48.697Z,53.10
2018-08-22T09:28:17.065Z,51.76
2018-08-22T09:30:45.422Z,52.72
2018-08-22T09:33:13.780Z,52.83
2018-08-22T09:35:42.133Z,52.12
2018-08-22T09:38:10.504Z,52.45
2018-08-22T09:40:51.604Z,51.53
2018-08-22T09:43:25.322Z,52.01
2018-08-22T09:45:53.711Z,51.79
2018-08-22T09:48:22.068Z,51.23
2018-08-22T09:50:50.491Z,50.74
2018-08-22T09:53:18.794Z,51.02
2018-08-22T09:55:47.147Z,51.03
2018-08-22T09:58:15.589Z,51.33
2018-08-22T10:00:43.902Z,51.75
2018-08-22T10:03:12.226Z,51.50
2018-08-22T10:05:40.585Z,50.40
2018-08-22T10:08:08.954Z,49.71
2018-08-22T10:10:37.301Z,49.97
2018-08-22T10:13:05.662Z,50.27
2018-08-22T10:15:34.022Z,50.34
2018-08-22T10:18:02.397Z,50.69
2018-08-22T10:20:30.763Z,50.84
2018-08-22T10:22:59.160Z,50.65
2018-08-22T10:25:27.536Z,51.01
2018-08-22T10:27:55.896Z,50.04
2018-08-22T10:30:24.246Z,48.37
2018-08-22T10:32:52.713Z,47.90
2018-08-22T10:35:20.966Z,48.54
2018-08-22T10:37:49.319Z,49.23
2018-08-22T10:40:17.710Z,49.29
2018-08-22T10:42:46.306Z,48.48
2018-08-22T10:45:14.664Z,48.13
2018-08-22T10:47:43.079Z,47.84
2018-08-22T10:50:11.447Z,48.23
2018-08-22T10:52:39.798Z,48.46
2018-08-22T10:55:08.171Z,48.35
2018-08-22T10:57:36.868Z,48.89
2018-08-22T11:00:05.237Z,49.54
2018-08-22T11:02:33.604Z,49.77
2018-08-22T11:05:01.950Z,50.11
2018-08-22T11:07:30.310Z,50.13
2018-08-22T11:09:58.699Z,50.56
2018-08-22T11:12:27.036Z,50.70
2018-08-22T11:14:55.395Z,50.80
2018-08-22T11:17:23.755Z,50.96
2018-08-22T11:19:52.115Z,51.05
2018-08-22T11:22:32.353Z,51.10
2018-08-22T11:25:12.533Z,51.05
2018-08-22T11:27:52.869Z,51.18
2018-08-22T11:30:33.206Z,51.13
2018-08-22T11:33:13.289Z,51.20
2018-08-22T11:35:41.171Z,48.26
2018-08-22T11:38:09.542Z,49.27
2018-08-22T11:40:37.897Z,48.99
2018-08-22T11:43:06.260Z,48.77
2018-08-22T11:45:34.620Z,48.00
2018-08-22T11:48:03.007Z,47.80
2018-08-22T11:50:31.369Z,47.52
2018-08-22T11:52:59.739Z,48.33
2018-08-22T11:55:28.111Z,47.64
2018-08-22T11:57:56.461Z,47.14
2018-08-22T12:00:24.857Z,47.05
2018-08-22T12:02:53.549Z,46.44
2018-08-22T12:05:21.899Z,46.54
2018-08-22T12:07:50.255Z,46.68
2018-08-22T12:10:18.614Z,46.68
2018-08-22T12:12:46.969Z,46.31
2018-08-22T12:15:15.337Z,45.13
2018-08-22T12:17:43.982Z,44.63
2018-08-22T12:20:12.335Z,43.42
2018-08-22T12:22:40.690Z,43.95
2018-08-22T12:25:09.050Z,43.20
2018-08-22T12:27:37.418Z,43.24
2018-08-22T12:30:05.786Z,43.37
2018-08-22T12:32:34.136Z,43.84
2018-08-22T12:35:02.493Z,44.62
2018-08-22T12:37:30.849Z,44.93
2018-08-22T12:39:59.215Z,43.89
2018-08-22T12:42:27.579Z,43.33
2018-08-22T12:44:55.954Z,43.81
2018-08-22T12:47:24.316Z,43.75
2018-08-22T12:49:52.677Z,42.62
2018-08-22T12:52:21.046Z,42.76
2018-08-22T12:54:49.405Z,43.11
2018-08-22T12:57:17.781Z,42.36
2018-08-22T12:59:46.125Z,41.84
2018-08-22T13:02:14.512Z,41.26
2018-08-22T13:04:42.908Z,41.03
2018-08-22T13:07:11.225Z,40.52
2018-08-22T13:09:39.604Z,40.20
2018-08-22T13:12:07.964Z,39.26
2018-08-22T13:14:36.594Z,39.45
2018-08-22T13:17:05.059Z,39.18
2018-08-22T13:19:33.313Z,39.09
2018-08-22T13:22:01.669Z,38.85
2018-08-22T13:24:30.088Z,38.63
2018-08-22T13:26:58.400Z,38.74
2018-08-22T13:29:26.755Z,39.02
2018-08-22T13:31:55.104Z,39.09
2018-08-22T13:34:23.465Z,39.60
2018-08-22T13:36:51.830Z,39.55
2018-08-22T13:39:20.193Z,38.96
2018-08-22T13:41:48.562Z,38.85
2018-08-22T13:44:16.957Z,38.76
2018-08-22T13:46:45.405Z,38.32
2018-08-22T13:49:13.755Z,37.77
2018-08-22T13:51:42.144Z,38.02
2018-08-22T13:54:10.507Z,37.39
2018-08-22T13:56:38.871Z,37.34
2018-08-22T13:59:07.233Z,37.13
2018-08-22T14:01:35.594Z,36.59
2018-08-22T14:04:03.984Z,36.50
2018-08-22T14:06:32.300Z,36.36
2018-08-22T14:09:00.832Z,35.58
2018-08-22T14:11:28.581Z,35.81
2018-08-22T14:13:57.479Z,35.35
2018-08-22T14:16:25.233Z,34.73
2018-08-22T14:18:54.445Z,34.45
2018-08-22T14:21:22.799Z,33.69
2018-08-22T14:23:50.633Z,33.13
2018-08-22T14:26:18.886Z,32.97
2018-08-22T14:28:47.201Z,32.71
2018-08-22T14:31:16.119Z,32.38
2018-08-22T14:33:43.896Z,32.20
2018-08-22T14:36:12.744Z,32.33
2018-08-22T14:38:41.094Z,33.00
2018-08-22T14:41:09.410Z,32.56
2018-08-22T14:43:37.167Z,32.13
2018-08-22T14:46:06.069Z,31.47
2018-08-22T14:48:34.388Z,32.06
2018-08-22T14:51:02.703Z,31.74
2018-08-22T14:53:31.039Z,31.57
2018-08-22T14:55:58.836Z,31.06
2018-08-22T14:58:27.086Z,31.59
2018-08-22T15:00:55.457Z,31.88
2018-08-22T15:03:24.702Z,31.75
2018-08-22T15:05:52.385Z,31.95
2018-08-22T15:08:21.296Z,31.44
2018-08-22T15:10:49.659Z,32.15
2018-08-22T15:13:17.942Z,32.48
2018-08-22T15:15:46.487Z,32.42
2018-08-22T15:18:14.025Z,31.89
2018-08-22T15:20:42.901Z,32.07
2018-08-22T15:23:12.707Z,31.42
2018-08-22T15:25:39.070Z,31.87
2018-08-22T15:28:07.999Z,31.85
2018-08-22T15:30:35.752Z,31.47
2018-08-22T15:33:04.700Z,31.88
2018-08-22T15:35:33.044Z,31.45
2018-08-22T15:38:01.392Z,31.41
2018-08-22T15:40:29.793Z,31.53
2018-08-22T15:42:58.125Z,31.72
2018-08-22T15:45:25.850Z,31.52
2018-08-22T15:47:54.765Z,31.20
2018-08-22T15:50:23.158Z,30.99
2018-08-22T15:52:51.489Z,31.35
2018-08-22T15:55:19.799Z,31.31
2018-08-22T15:57:48.255Z,31.14
2018-08-22T16:00:16.670Z,30.99
2018-08-22T16:02:45.016Z,30.85
2018-08-22T16:05:13.343Z,31.04
2018-08-22T16:07:41.117Z,30.71
2018-08-22T16:10:10.022Z,31.16
2018-08-22T16:12:37.750Z,31.43
2018-08-22T16:15:06.699Z,31.82
2018-08-22T16:17:35.079Z,33.09
2018-08-22T16:20:03.399Z,34.33
2018-08-22T16:22:31.708Z,35.66
2018-08-22T16:25:00.029Z,37.18
2018-08-22T16:27:27.770Z,38.61
2018-08-22T16:29:56.668Z,39.57
2018-08-22T16:32:25.033Z,39.89
2018-08-22T16:34:53.543Z,40.32
2018-08-22T16:37:22.442Z,41.21
2018-08-22T16:39:50.799Z,41.99
2018-08-22T16:42:18.549Z,42.71
2018-08-22T16:44:47.438Z,43.30
2018-08-22T16:47:15.800Z,43.71
2018-08-22T16:49:44.120Z,43.93
2018-08-22T16:52:12.432Z,44.25
2018-08-22T16:54:40.858Z,44.41
2018-08-22T16:57:09.211Z,44.62
2018-08-22T16:59:37.509Z,44.91
2018-08-22T17:02:05.838Z,45.14
2018-08-22T17:04:34.247Z,45.41
2018-08-22T17:07:02.047Z,45.76
2018-08-22T17:09:30.950Z,45.90
2018-08-22T17:11:59.321Z,46.31
2018-08-22T17:14:27.639Z,46.60
2018-08-22T17:16:55.373Z,47.00
2018-08-22T17:19:24.283Z,47.26
2018-08-22T17:21:52.643Z,47.36
2018-08-22T17:24:20.960Z,47.64
2018-08-22T17:26:48.701Z,47.83
2018-08-22T17:29:17.597Z,48.11
2018-08-22T17:31:45.946Z,48.18
2018-08-22T17:34:14.284Z,48.36
2018-08-22T17:36:42.613Z,48.71
2018-08-22T17:39:10.946Z,48.87
2018-08-22T17:41:39.289Z,49.05
2018-08-22T17:44:07.622Z,49.34
2018-08-22T17:46:35.947Z,49.42
2018-08-22T17:49:04.326Z,49.55
2018-08-22T17:51:32.655Z,49.59
2018-08-22T17:54:00.411Z,49.92
2018-08-22T17:56:29.439Z,50.25
2018-08-22T17:58:57.787Z,50.57
2018-08-22T18:01:25.594Z,50.90
2018-08-22T18:03:54.496Z,51.34
2018-08-22T18:06:22.859Z,51.54
2018-08-22T18:08:51.169Z,51.65
2018-08-22T18:11:19.489Z,51.82
2018-08-22T18:13:47.913Z,51.89
2018-08-22T18:16:16.169Z,52.03
2018-08-22T18:18:44.486Z,52.26
2018-08-22T18:21:12.828Z,52.26
2018-08-22T18:23:41.145Z,52.34
2018-08-22T18:26:09.480Z,52.64
2018-08-22T18:28:37.249Z,52.72
2018-08-22T18:31:06.374Z,53.01
2018-08-22T18:33:33.900Z,53.14
2018-08-22T18:36:02.809Z,53.26
2018-08-22T18:38:31.144Z,53.44
2018-08-22T18:40:59.465Z,53.50
2018-08-22T18:43:27.802Z,53.73
2018-08-22T18:45:56.124Z,54.02
2018-08-22T18:48:23.877Z,54.24
2018-08-22T18:50:52.212Z,54.30
2018-08-22T18:53:21.278Z,54.46
2018-08-22T18:55:49.667Z,55.18
2018-08-22T18:58:17.990Z,55.51
2018-08-22T19:00:45.729Z,55.63
2018-08-22T19:03:14.635Z,55.79
2018-08-22T19:05:42.954Z,56.00
2018-08-22T19:08:11.332Z,56.19
2018-08-22T19:10:39.285Z,56.31
2018-08-22T19:13:08.243Z,56.54
2018-08-22T19:15:36.567Z,56.66
2018-08-22T19:18:04.904Z,56.76
2018-08-22T19:20:33.230Z,56.87
2018-08-22T19:23:01.565Z,56.94
2018-08-22T19:25:30.088Z,57.17
2018-08-22T19:27:58.234Z,57.15
2018-08-22T19:30:26.007Z,57.21
2018-08-22T19:32:54.336Z,57.41
2018-08-22T19:35:23.319Z,57.44
2018-08-22T19:37:51.646Z,57.67
2018-08-22T19:40:19.429Z,57.73
2018-08-22T19:42:48.666Z,57.72
2018-08-22T19:45:17.033Z,58.00
2018-08-22T19:47:44.762Z,58.04
2018-08-22T19:50:13.776Z,58.45
2018-08-22T19:52:42.121Z,59.16
2018-08-22T19:55:10.022Z,59.89
2018-08-22T19:57:38.925Z,60.19
2018-08-22T20:00:07.330Z,61.10
2018-08-22T20:02:35.686Z,62.17
2018-08-22T20:05:04.323Z,62.86
2018-08-22T20:07:32.652Z,63.11
2018-08-22T20:10:01.003Z,63.15
2018-08-22T20:12:29.353Z,63.18
2018-08-22T20:14:57.758Z,63.39
2018-08-22T20:17:26.084Z,63.85
2018-08-22T20:19:54.441Z,64.00
2018-08-22T20:22:22.821Z,64.16
2018-08-22T20:24:51.798Z,64.25
2018-08-22T20:27:19.535Z,64.28
2018-08-22T20:29:48.453Z,64.40
2018-08-22T20:32:16.858Z,64.42
2018-08-22T20:34:45.191Z,64.88
2018-08-22T20:37:13.560Z,65.18
2018-08-22T20:39:42.168Z,65.43
2018-08-22T20:42:10.245Z,65.64
2018-08-22T20:44:38.598Z,65.50
2018-08-22T20:47:06.941Z,65.16
2018-08-22T20:49:35.313Z,65.03
2018-08-22T20:52:03.664Z,64.86
2018-08-22T20:54:31.996Z,65.15
2018-08-22T20:57:00.366Z,64.91
2018-08-22T20:59:28.693Z,64.86
2018-08-22T21:01:56.932Z,64.82
2018-08-22T21:04:25.342Z,64.56
2018-08-22T21:06:53.086Z,64.39
2018-08-22T21:09:22.114Z,64.46
2018-08-22T21:11:50.422Z,64.49
2018-08-22T21:14:19.047Z,64.52
2018-08-22T21:16:47.139Z,64.40
2018-08-22T21:19:15.476Z,64.46
2018-08-22T21:21:43.203Z,64.28
2018-08-22T21:24:12.111Z,64.25
2018-08-22T21:26:40.424Z,64.11
2018-08-22T21:29:08.782Z,63.90
2018-08-22T21:31:37.100Z,63.73
2018-08-22T21:34:04.846Z,63.64
2018-08-22T21:36:33.183Z,63.50
2018-08-22T21:39:02.104Z,63.37
2018-08-22T21:41:29.849Z,63.50
2018-08-22T21:43:58.181Z,63.59
2018-08-22T21:46:27.082Z,63.54
2018-08-22T21:48:55.565Z,63.12
2018-08-22T21:51:23.332Z,62.93
2018-08-22T21:53:52.223Z,62.76
2018-08-22T21:56:20.047Z,62.66
2018-08-22T21:58:48.364Z,62.69
2018-08-22T22:01:17.262Z,62.47
2018-08-22T22:03:45.577Z,62.51
2018-08-22T22:06:13.902Z,61.92
2018-08-22T22:08:42.231Z,61.73
2018-08-22T22:11:11.713Z,61.86
2018-08-22T22:13:39.223Z,61.96
2018-08-22T22:16:08.136Z,61.74
2018-08-22T22:18:35.872Z,61.63
2018-08-22T22:21:04.771Z,61.50
2018-08-22T22:23:33.095Z,61.25
2018-08-22T22:28:39.119Z,60.84
2018-08-22T22:31:07.445Z,60.76
2018-08-22T22:33:40.816Z,59.64
2018-08-22T22:36:09.178Z,60.24
2018-08-22T22:38:37.520Z,59.58
2018-08-22T22:41:05.845Z,60.08
2018-08-22T22:43:33.597Z,59.70
2018-08-22T22:46:01.912Z,58.49
2018-08-22T22:48:30.237Z,57.82
2018-08-22T22:50:58.542Z,56.70
2018-08-22T22:53:27.469Z,56.34
2018-08-22T22:55:55.844Z,55.78
2018-08-22T22:58:24.160Z,55.61
2018-08-22T23:00:51.904Z,55.12
2018-08-22T23:03:20.212Z,54.73
2018-08-22T23:05:49.174Z,54.46
2018-08-22T23:13:24.190Z,53.44
2018-08-22T23:15:53.118Z,53.36
2018-08-22T23:18:20.883Z,53.33
2018-08-22T23:20:50.006Z,53.21
2018-08-22T23:23:18.082Z,53.16
2018-08-22T23:25:46.395Z,53.40
2018-08-22T23:28:14.712Z,53.26
2018-08-22T23:30:42.467Z,53.05
2018-08-22T23:33:10.781Z,53.02
2018-08-22T23:35:39.692Z,53.14
2018-08-22T23:38:08.077Z,53.02
2018-08-22T23:40:35.813Z,53.16
2018-08-22T23:43:04.700Z,53.23
2018-08-22T23:45:33.027Z,53.21
2018-08-22T23:48:01.345Z,53.14
2018-08-22T23:50:29.652Z,53.24
2018-08-22T23:52:57.386Z,53.32
2018-08-22T23:55:25.699Z,53.36
2018-08-22T23:57:54.590Z,53.41
